Terminal Aerodrome Forecast
Issued by NWS

Home | Current Version | Previous Version | Text Only | Print | Product List | Glossary On
Versions: 1 2 3 4 5 6 7 8 9 10 11 12 13 14 15 16
000
FTUS43 KGRR 302000 AAA
TAFMKG
TAF AMD
KMKG 302005Z 3020/3118 27010KT P6SM FEW060 SCT200
     FM310200 12004KT 6SM -RA BKN060
     FM310400 11004KT 4SM -RA BR OVC025
     FM311000 05004KT P6SM BKN025
     FM311500 05006KT P6SM FEW035=

USA.gov is the U.S. government's official web portal to all federal, state and local government web resources and services.